Time;durP1;ratioP1;P1;durP2;ratioP2;P2;SDS_P1;SDS_P2;PMS_P1;PMS_P2;Temp;Humidity;BMP_temperature;BMP_pressure;BME280_temperature;BME280_humidity;BME280_pressure;Samples;Min_cycle;Max_cycle;Signal;HPM_P1;HPM_P2
2023/07/20 00:01:24;;;;;;;4.88;2.40;;;21.50;99.90;;;;;;5093624;28;20023;-80
2023/07/20 00:03:54;;;;;;;4.80;2.53;;;21.50;99.90;;;;;;5093478;28;20031;-81
2023/07/20 00:06:25;;;;;;;4.90;2.95;;;21.50;99.90;;;;;;5111608;28;20031;-81
2023/07/20 00:08:54;;;;;;;7.88;3.53;;;21.40;99.90;;;;;;5093549;28;20061;-80
2023/07/20 00:11:21;;;;;;;5.78;3.08;;;21.40;99.90;;;;;;5107256;28;20035;-80
2023/07/20 00:13:47;;;;;;;8.43;2.78;;;21.40;99.90;;;;;;5111648;28;20069;-81
2023/07/20 00:16:13;;;;;;;5.72;3.00;;;21.30;99.90;;;;;;5111656;28;20031;-81
2023/07/20 00:18:38;;;;;;;5.32;2.83;;;21.30;99.90;;;;;;5093383;28;20114;-81
2023/07/20 00:21:04;;;;;;;4.28;2.55;;;21.30;99.90;;;;;;5093235;28;20035;-81
2023/07/20 00:23:30;;;;;;;5.88;2.88;;;21.30;99.90;;;;;;5093465;28;20034;-82
2023/07/20 00:25:55;;;;;;;5.38;2.50;;;21.30;99.90;;;;;;5093421;28;20028;-81
2023/07/20 00:28:21;;;;;;;6.30;2.47;;;21.20;99.90;;;;;;5111579;28;20016;-81
2023/07/20 00:30:46;;;;;;;5.25;2.88;;;21.30;99.90;;;;;;5111658;28;20048;-81
2023/07/20 00:33:12;;;;;;;4.07;2.88;;;21.20;99.90;;;;;;5111415;28;20111;-81
2023/07/20 00:35:39;;;;;;;4.20;3.00;;;21.20;99.90;;;;;;5111412;28;20636;-81
2023/07/20 00:38:05;;;;;;;9.70;2.97;;;21.20;99.90;;;;;;5093271;28;20029;-82
2023/07/20 00:40:41;;;;;;;7.10;2.83;;;21.10;99.90;;;;;;5111488;28;20030;-81
2023/07/20 00:43:07;;;;;;;5.47;2.95;;;21.10;99.90;;;;;;5093268;28;20118;-82
2023/07/20 00:45:34;;;;;;;6.18;3.00;;;21.00;99.90;;;;;;5093303;28;20035;-81
2023/07/20 00:48:01;;;;;;;6.95;2.35;;;21.00;99.90;;;;;;5093014;28;20179;-82
2023/07/20 00:50:28;;;;;;;7.28;2.63;;;21.00;99.90;;;;;;5111471;28;20065;-82
2023/07/20 00:52:55;;;;;;;6.40;3.22;;;21.00;99.90;;;;;;5111394;28;20036;-82
2023/07/20 00:55:21;;;;;;;4.60;2.88;;;20.90;99.90;;;;;;5093185;28;20032;-80
2023/07/20 00:57:47;;;;;;;3.80;2.65;;;20.90;99.90;;;;;;5093086;28;20045;-81
2023/07/20 01:00:13;;;;;;;5.93;3.20;;;20.90;99.90;;;;;;5111759;28;20042;-81
2023/07/20 01:02:39;;;;;;;7.00;2.95;;;21.00;99.90;;;;;;5114723;28;20482;-81
2023/07/20 01:05:06;;;;;;;8.80;3.60;;;20.90;99.90;;;;;;5096636;28;20110;-80
2023/07/20 01:07:39;;;;;;;5.07;2.95;;;20.90;99.90;;;;;;5115118;28;20019;-81
2023/07/20 01:10:33;;;;;;;3.78;2.95;;;20.90;99.90;;;;;;5096879;28;20472;-82
2023/07/20 01:13:01;;;;;;;6.80;2.33;;;20.90;99.90;;;;;;5114888;28;20073;-82
2023/07/20 01:15:27;;;;;;;5.15;2.72;;;20.90;99.90;;;;;;5115251;28;20047;-82
2023/07/20 01:17:53;;;;;;;7.18;3.03;;;20.90;99.90;;;;;;5114883;28;20016;-81
2023/07/20 01:20:21;;;;;;;7.05;3.28;;;20.90;99.90;;;;;;5114703;28;20419;-81
2023/07/20 01:23:11;;;;;;;6.68;3.00;;;20.90;99.90;;;;;;5096490;28;20012;-81
2023/07/20 01:25:55;;;;;;;6.70;2.70;;;20.90;99.90;;;;;;5114773;28;20024;-81
2023/07/20 01:28:35;;;;;;;4.50;2.78;;;20.80;99.90;;;;;;5114211;28;20085;-82
2023/07/20 01:31:15;;;;;;;10.18;2.80;;;20.80;99.90;;;;;;5114450;28;20102;-81
2023/07/20 01:33:42;;;;;;;6.88;3.72;;;20.80;99.90;;;;;;5096257;28;20408;-80
2023/07/20 01:36:10;;;;;;;5.82;2.92;;;20.80;99.90;;;;;;5114700;28;20070;-82
2023/07/20 01:38:37;;;;;;;5.38;3.05;;;20.80;99.90;;;;;;5114607;28;20165;-82
2023/07/20 01:41:03;;;;;;;5.32;2.88;;;20.70;99.90;;;;;;5095906;28;20511;-81
2023/07/20 01:43:29;;;;;;;6.10;3.03;;;20.70;99.90;;;;;;5114543;28;20026;-80
2023/07/20 01:45:54;;;;;;;8.55;3.58;;;20.70;99.90;;;;;;5095940;28;20480;-81
2023/07/20 01:48:20;;;;;;;6.85;3.30;;;20.70;99.90;;;;;;5096155;28;20080;-82
2023/07/20 01:50:46;;;;;;;6.22;3.28;;;20.70;99.90;;;;;;5114461;28;20079;-81
2023/07/20 01:53:12;;;;;;;8.45;3.10;;;20.70;99.90;;;;;;5114219;28;20410;-82
2023/07/20 01:55:38;;;;;;;4.72;2.58;;;20.70;99.90;;;;;;5114327;28;20492;-82
2023/07/20 01:58:03;;;;;;;5.40;2.63;;;20.60;99.90;;;;;;5095858;28;20035;-82
2023/07/20 02:00:29;;;;;;;4.05;2.47;;;20.60;99.90;;;;;;5095895;28;20020;-82
2023/07/20 02:02:55;;;;;;;9.00;2.92;;;20.60;99.90;;;;;;5095753;28;20028;-82
2023/07/20 02:05:21;;;;;;;7.00;2.53;;;20.60;99.90;;;;;;5114161;28;20024;-82
2023/07/20 02:07:46;;;;;;;6.93;2.75;;;20.50;99.90;;;;;;5114151;28;20441;-82
2023/07/20 02:10:12;;;;;;;7.78;2.60;;;20.50;99.90;;;;;;5113536;28;20080;-82
2023/07/20 02:12:38;;;;;;;4.85;2.80;;;20.40;99.90;;;;;;5112493;28;20032;-82
2023/07/20 02:15:04;;;;;;;4.28;2.65;;;20.40;99.90;;;;;;5113689;28;20082;-82
2023/07/20 02:17:29;;;;;;;4.07;2.80;;;20.40;99.90;;;;;;5095862;28;20031;-82
2023/07/20 02:19:57;;;;;;;6.72;3.63;;;20.40;99.90;;;;;;5113565;28;20027;-82
2023/07/20 02:22:23;;;;;;;6.85;2.72;;;20.30;99.90;;;;;;5113341;28;20029;-82
2023/07/20 02:24:50;;;;;;;5.70;3.20;;;20.20;99.90;;;;;;5094987;28;20030;-80
2023/07/20 02:27:16;;;;;;;6.28;3.55;;;20.20;99.90;;;;;;5113634;28;20063;-82
2023/07/20 02:29:42;;;;;;;7.65;3.00;;;20.10;99.90;;;;;;5095320;28;20052;-82
2023/07/20 02:32:09;;;;;;;5.97;2.53;;;20.10;99.90;;;;;;5113584;28;20467;-81
2023/07/20 02:34:35;;;;;;;5.85;2.78;;;20.10;99.90;;;;;;5095332;28;20031;-83
2023/07/20 02:37:01;;;;;;;6.53;3.22;;;20.00;99.90;;;;;;5113544;28;20031;-82
2023/07/20 02:39:30;;;;;;;6.15;3.00;;;19.90;99.90;;;;;;5113554;28;20027;-82
2023/07/20 02:41:56;;;;;;;6.82;3.38;;;19.90;99.90;;;;;;5095106;28;20055;-82
2023/07/20 02:44:21;;;;;;;9.82;2.67;;;19.80;99.90;;;;;;5095124;28;20131;-82
2023/07/20 02:46:49;;;;;;;7.55;3.70;;;19.80;99.90;;;;;;5112875;28;20034;-82
2023/07/20 02:49:15;;;;;;;6.60;3.17;;;19.80;99.90;;;;;;5095253;28;20115;-82
2023/07/20 02:51:41;;;;;;;11.98;3.35;;;19.80;99.90;;;;;;5113129;28;20023;-81
2023/07/20 02:54:08;;;;;;;6.60;2.78;;;19.80;99.90;;;;;;5113198;28;20036;-81
2023/07/20 02:56:34;;;;;;;8.40;3.05;;;19.80;99.90;;;;;;5113100;28;20099;-83
2023/07/20 02:59:01;;;;;;;8.90;2.78;;;19.80;99.90;;;;;;5094946;28;20049;-82
2023/07/20 03:01:29;;;;;;;3.85;2.67;;;19.80;99.90;;;;;;5094961;28;20024;-82
2023/07/20 03:03:55;;;;;;;8.90;3.17;;;19.80;99.90;;;;;;5113068;28;20024;-81
2023/07/20 03:06:20;;;;;;;7.35;3.53;;;19.80;99.90;;;;;;5094348;28;20066;-83
2023/07/20 03:08:51;;;;;;;5.72;3.38;;;19.80;99.90;;;;;;5112592;28;20059;-82
2023/07/20 03:11:18;;;;;;;5.25;3.15;;;19.80;99.90;;;;;;5112683;28;20046;-82
2023/07/20 03:13:44;;;;;;;9.50;3.20;;;19.70;99.90;;;;;;5112054;28;20031;-82
2023/07/20 03:16:17;;;;;;;9.82;4.53;;;19.70;99.90;;;;;;5112499;28;20039;-81
2023/07/20 03:18:43;;;;;;;10.32;3.58;;;19.70;99.90;;;;;;5112555;28;20049;-83
2023/07/20 03:21:13;;;;;;;8.25;3.67;;;19.60;99.90;;;;;;5112486;28;20031;-82
2023/07/20 03:23:40;;;;;;;6.68;3.10;;;19.60;99.90;;;;;;5093821;28;20027;-82
2023/07/20 03:26:08;;;;;;;7.82;3.63;;;19.60;99.90;;;;;;5112350;28;20031;-82
2023/07/20 03:28:35;;;;;;;7.50;2.83;;;19.60;99.90;;;;;;5094344;28;20432;-83
2023/07/20 03:31:00;;;;;;;5.30;3.30;;;19.60;99.90;;;;;;5094033;28;20503;-82
2023/07/20 03:33:31;;;;;;;6.72;3.08;;;19.70;99.90;;;;;;5094243;28;20019;-83
2023/07/20 03:35:57;;;;;;;9.63;3.70;;;19.70;99.90;;;;;;5093978;28;20036;-82
2023/07/20 03:38:23;;;;;;;6.05;2.92;;;19.80;99.90;;;;;;5094020;28;20024;-83
2023/07/20 03:40:54;;;;;;;5.05;2.95;;;19.80;99.90;;;;;;5112461;28;20120;-83
2023/07/20 03:43:21;;;;;;;6.03;3.38;;;19.80;99.90;;;;;;5112142;28;20026;-82
2023/07/20 03:45:48;;;;;;;7.78;2.95;;;19.80;99.90;;;;;;5112267;28;20077;-82
2023/07/20 03:48:17;;;;;;;10.23;3.60;;;19.90;99.90;;;;;;5094136;28;20484;-82
2023/07/20 03:50:45;;;;;;;5.57;2.80;;;20.00;99.90;;;;;;5093907;28;20380;-82
2023/07/20 03:53:11;;;;;;;5.80;3.67;;;20.10;99.90;;;;;;5093591;28;20023;-83
2023/07/20 03:55:37;;;;;;;5.63;3.13;;;20.10;99.90;;;;;;5093690;28;20039;-81
2023/07/20 03:58:03;;;;;;;16.17;3.80;;;20.20;99.90;;;;;;5093969;28;20026;-82
2023/07/20 04:00:28;;;;;;;5.47;3.20;;;20.30;99.90;;;;;;5093731;28;20500;-81
2023/07/20 04:02:54;;;;;;;6.18;3.45;;;20.30;99.90;;;;;;5111809;28;20062;-82
2023/07/20 04:05:20;;;;;;;10.25;3.13;;;20.40;99.90;;;;;;5111939;28;20500;-81
2023/07/20 04:07:46;;;;;;;8.73;3.60;;;20.50;99.90;;;;;;5112024;28;20425;-80
2023/07/20 04:10:12;;;;;;;6.97;3.40;;;20.50;99.90;;;;;;5112344;28;20451;-81
2023/07/20 04:12:38;;;;;;;11.23;3.75;;;20.50;99.90;;;;;;5093373;28;20107;-82
2023/07/20 04:15:04;;;;;;;5.70;3.22;;;20.70;99.90;;;;;;5093479;28;20042;-81
2023/07/20 04:17:30;;;;;;;6.80;3.28;;;20.80;99.90;;;;;;5111236;28;20095;-81
2023/07/20 04:19:55;;;;;;;12.18;3.38;;;20.90;99.90;;;;;;5111874;28;20031;-81
2023/07/20 04:22:21;;;;;;;7.90;3.80;;;21.00;99.90;;;;;;5111628;28;20077;-81
2023/07/20 04:24:47;;;;;;;6.45;3.15;;;21.10;99.90;;;;;;5111727;28;20028;-81
2023/07/20 04:27:12;;;;;;;14.23;4.35;;;21.20;99.90;;;;;;5093343;28;20024;-81
2023/07/20 04:29:38;;;;;;;7.25;3.67;;;21.30;99.90;;;;;;5111794;28;20123;-81
2023/07/20 04:32:04;;;;;;;6.43;3.35;;;21.40;99.90;;;;;;5093411;28;20027;-81
2023/07/20 04:34:30;;;;;;;5.65;2.58;;;21.50;99.90;;;;;;5092896;28;20047;-81
2023/07/20 04:36:56;;;;;;;4.90;3.40;;;21.60;99.90;;;;;;5095418;28;20023;-81
2023/07/20 04:39:21;;;;;;;6.00;2.80;;;21.70;99.90;;;;;;5115813;28;20077;-82
2023/07/20 04:41:47;;;;;;;6.22;3.28;;;21.70;99.90;;;;;;5115511;28;20042;-81
2023/07/20 04:44:14;;;;;;;11.18;3.35;;;21.80;99.90;;;;;;5097468;28;20024;-81
2023/07/20 04:46:40;;;;;;;7.07;3.22;;;21.90;99.90;;;;;;5115191;28;20023;-82
2023/07/20 04:49:05;;;;;;;6.53;2.85;;;21.90;99.90;;;;;;5097162;28;20633;-80
2023/07/20 04:51:31;;;;;;;6.90;3.00;;;22.00;99.90;;;;;;5115153;28;20027;-82
2023/07/20 04:53:57;;;;;;;6.78;3.08;;;22.00;99.90;;;;;;5115578;28;20031;-82
2023/07/20 04:56:24;;;;;;;9.07;3.58;;;22.20;99.90;;;;;;5114696;28;20036;-82
2023/07/20 04:58:50;;;;;;;6.55;2.80;;;22.30;99.90;;;;;;5114931;28;20019;-81
2023/07/20 05:01:16;;;;;;;4.68;2.83;;;22.40;99.90;;;;;;5096974;28;20020;-81
2023/07/20 05:03:42;;;;;;;7.25;3.10;;;22.50;99.90;;;;;;5096524;28;20035;-82
2023/07/20 05:06:07;;;;;;;7.10;3.20;;;22.60;99.90;;;;;;5096916;28;20567;-82
2023/07/20 05:08:33;;;;;;;8.88;3.63;;;22.70;99.90;;;;;;5115078;28;20384;-82
2023/07/20 05:11:02;;;;;;;5.82;2.92;;;22.80;99.90;;;;;;5114873;28;20035;-81
2023/07/20 05:13:28;;;;;;;9.15;3.13;;;22.90;99.90;;;;;;5114569;28;20030;-80
2023/07/20 05:15:53;;;;;;;5.97;3.17;;;23.00;99.90;;;;;;5114162;28;20031;-81
2023/07/20 05:18:20;;;;;;;8.88;3.50;;;23.20;99.90;;;;;;5114676;28;20488;-82
2023/07/20 05:20:47;;;;;;;14.18;3.67;;;23.30;99.90;;;;;;5096384;28;20027;-82
2023/07/20 05:23:13;;;;;;;5.82;2.70;;;23.60;99.90;;;;;;5114727;28;20430;-82
2023/07/20 05:25:39;;;;;;;7.00;4.03;;;23.80;99.90;;;;;;5096352;28;20522;-81
2023/07/20 05:28:04;;;;;;;7.50;3.10;;;24.10;99.90;;;;;;5114471;28;20098;-81
2023/07/20 05:30:30;;;;;;;5.97;2.67;;;24.20;99.90;;;;;;5113741;28;20055;-81
2023/07/20 05:32:56;;;;;;;6.00;2.78;;;24.40;99.90;;;;;;5096715;28;20161;-81
2023/07/20 05:35:22;;;;;;;8.48;3.00;;;24.60;99.90;;;;;;5114646;28;20400;-81
2023/07/20 05:37:48;;;;;;;5.40;2.80;;;24.70;99.80;;;;;;5114610;28;20023;-82
2023/07/20 05:40:18;;;;;;;7.45;2.90;;;24.90;99.60;;;;;;5096286;28;20027;-82
2023/07/20 05:42:45;;;;;;;9.60;3.60;;;25.10;98.20;;;;;;5114529;28;20023;-82
2023/07/20 05:45:11;;;;;;;4.47;3.00;;;25.20;97.60;;;;;;5096208;28;20085;-81
2023/07/20 05:47:37;;;;;;;6.57;2.83;;;25.30;96.90;;;;;;5095631;28;20499;-82
2023/07/20 05:50:03;;;;;;;5.20;2.75;;;25.30;95.10;;;;;;5095907;28;20541;-80
2023/07/20 05:52:29;;;;;;;5.40;2.85;;;25.50;94.80;;;;;;5114042;28;20069;-80
2023/07/20 05:54:55;;;;;;;5.60;2.53;;;25.60;94.80;;;;;;5113872;28;20047;-82
2023/07/20 05:57:20;;;;;;;5.60;3.30;;;25.80;93.60;;;;;;5095871;28;20032;-82
2023/07/20 05:59:46;;;;;;;4.57;2.50;;;26.10;91.60;;;;;;5095553;28;20028;-82
2023/07/20 06:02:12;;;;;;;13.32;2.78;;;26.50;90.30;;;;;;5114330;28;20015;-83
2023/07/20 06:04:39;;;;;;;6.75;2.92;;;27.50;86.80;;;;;;5113414;28;20041;-83
2023/07/20 06:07:05;;;;;;;4.47;2.28;;;28.50;81.00;;;;;;5113772;28;20073;-81
2023/07/20 06:09:31;;;;;;;5.43;2.78;;;29.40;75.00;;;;;;5095780;28;20036;-82
2023/07/20 06:11:56;;;;;;;13.43;3.08;;;29.80;72.00;;;;;;5095559;28;20019;-82
2023/07/20 06:14:22;;;;;;;7.60;3.00;;;30.50;69.40;;;;;;5094956;28;20130;-82
2023/07/20 06:16:48;;;;;;;5.65;2.63;;;31.50;66.20;;;;;;5113081;28;20024;-82
2023/07/20 06:19:14;;;;;;;4.95;2.72;;;32.30;62.30;;;;;;5113512;28;20027;-82
2023/07/20 06:21:39;;;;;;;5.68;2.47;;;32.80;60.00;;;;;;5113538;28;20042;-82
2023/07/20 06:24:05;;;;;;;5.38;3.25;;;33.50;57.30;;;;;;5113356;28;20099;-82
2023/07/20 06:26:37;;;;;;;4.35;2.15;;;34.40;54.40;;;;;;5095275;28;20032;-83
2023/07/20 06:29:03;;;;;;;5.10;2.47;;;34.60;52.60;;;;;;5113051;28;20027;-81
2023/07/20 06:31:29;;;;;;;6.47;2.17;;;34.80;49.70;;;;;;5094816;28;20047;-81
2023/07/20 06:33:54;;;;;;;9.40;2.30;;;35.10;48.60;;;;;;5113034;28;20027;-82
2023/07/20 06:36:20;;;;;;;8.63;3.00;;;35.40;46.70;;;;;;5094256;28;20035;-82
2023/07/20 06:38:46;;;;;;;8.43;2.35;;;35.60;45.70;;;;;;5094750;28;20032;-82
2023/07/20 06:41:11;;;;;;;10.18;2.40;;;35.40;44.00;;;;;;5094659;28;20114;-82
2023/07/20 06:43:37;;;;;;;5.57;2.53;;;35.40;44.50;;;;;;5112764;28;20112;-82
2023/07/20 06:46:03;;;;;;;3.88;2.30;;;35.50;43.20;;;;;;5094268;28;20106;-83
2023/07/20 06:48:29;;;;;;;4.57;2.53;;;36.10;42.60;;;;;;5112399;28;20118;-82
2023/07/20 06:50:55;;;;;;;4.15;2.33;;;36.40;42.10;;;;;;5112774;28;20030;-82
2023/07/20 06:53:21;;;;;;;3.38;2.28;;;36.50;42.20;;;;;;5094588;28;20028;-82
2023/07/20 06:55:46;;;;;;;8.65;2.80;;;36.60;41.60;;;;;;5094207;28;20064;-82
2023/07/20 06:58:12;;;;;;;5.53;2.65;;;36.50;41.70;;;;;;5112284;28;20095;-82
2023/07/20 07:00:38;;;;;;;7.78;3.08;;;36.60;41.00;;;;;;5111859;28;20041;-82
2023/07/20 07:03:03;;;;;;;5.18;2.58;;;36.60;40.60;;;;;;5093878;28;20020;-82
2023/07/20 07:05:29;;;;;;;5.43;2.70;;;36.20;41.10;;;;;;5094205;28;20034;-83
2023/07/20 07:07:55;;;;;;;8.10;2.75;;;36.00;41.40;;;;;;5094221;28;20058;-80
2023/07/20 07:10:20;;;;;;;5.03;2.20;;;36.10;41.30;;;;;;5112366;28;20399;-82
2023/07/20 07:12:46;;;;;;;8.55;2.55;;;36.20;41.20;;;;;;5093966;28;20442;-82
2023/07/20 07:15:12;;;;;;;4.47;2.42;;;36.60;40.30;;;;;;5093903;28;20384;-83
2023/07/20 07:17:38;;;;;;;4.22;2.70;;;36.80;40.00;;;;;;5093994;28;20167;-82
2023/07/20 07:20:05;;;;;;;3.63;2.03;;;36.90;39.50;;;;;;5093740;28;20110;-82
2023/07/20 07:22:30;;;;;;;4.47;2.00;;;36.70;40.00;;;;;;5093857;28;20072;-80
2023/07/20 07:24:56;;;;;;;5.95;2.58;;;36.70;39.90;;;;;;5093873;28;20118;-82
2023/07/20 07:27:22;;;;;;;4.38;2.20;;;36.90;39.50;;;;;;5112302;28;20024;-82
2023/07/20 07:29:48;;;;;;;8.10;2.25;;;36.90;40.00;;;;;;5111718;28;20043;-82
2023/07/20 07:32:14;;;;;;;9.40;2.50;;;37.00;39.70;;;;;;5111548;28;20016;-83
2023/07/20 07:34:40;;;;;;;7.13;2.80;;;36.50;40.90;;;;;;5111784;28;20187;-82
2023/07/20 07:37:06;;;;;;;7.70;2.45;;;36.50;41.30;;;;;;5093151;28;20161;-82
2023/07/20 07:39:32;;;;;;;5.90;2.47;;;36.70;40.10;;;;;;5093449;28;20073;-82
2023/07/20 07:41:57;;;;;;;4.88;2.13;;;36.60;40.00;;;;;;5093555;28;20172;-82
2023/07/20 07:44:23;;;;;;;5.90;2.65;;;36.20;40.80;;;;;;5093619;28;20511;-82
2023/07/20 07:46:49;;;;;;;11.85;2.83;;;36.20;40.80;;;;;;5093501;28;20484;-82
2023/07/20 07:49:16;;;;;;;9.80;2.42;;;36.30;41.00;;;;;;5111851;28;20039;-82
2023/07/20 07:51:41;;;;;;;5.95;2.50;;;36.40;40.80;;;;;;5093455;28;20051;-82
2023/07/20 07:54:07;;;;;;;8.75;2.10;;;36.40;39.30;;;;;;5093134;28;20104;-83
2023/07/20 07:56:33;;;;;;;9.57;2.50;;;36.40;39.50;;;;;;5111633;28;20045;-83
2023/07/20 07:58:58;;;;;;;7.47;2.17;;;36.10;39.90;;;;;;5111695;28;20493;-84
2023/07/20 08:01:24;;;;;;;8.05;2.53;;;36.00;40.40;;;;;;5111641;28;20463;-82
2023/07/20 08:03:50;;;;;;;6.55;2.67;;;36.20;40.20;;;;;;5111313;28;20028;-81
2023/07/20 08:06:16;;;;;;;6.07;2.83;;;36.40;40.10;;;;;;5092992;28;20118;-82
2023/07/20 08:08:42;;;;;;;4.50;2.30;;;36.20;40.30;;;;;;5093086;28;20111;-82
2023/07/20 08:11:08;;;;;;;11.55;2.70;;;36.50;39.90;;;;;;5111161;28;20506;-83
2023/07/20 08:13:35;;;;;;;5.95;2.15;;;36.60;39.30;;;;;;5092901;28;20068;-83
2023/07/20 08:16:02;;;;;;;7.28;2.38;;;36.60;39.30;;;;;;5111079;28;20063;-82
2023/07/20 08:18:28;;;;;;;8.45;2.00;;;36.60;39.10;;;;;;5093248;28;20396;-81
2023/07/20 08:20:54;;;;;;;9.73;2.20;;;36.70;37.50;;;;;;5111253;28;20038;-82
2023/07/20 08:23:20;;;;;;;7.63;2.10;;;36.80;37.20;;;;;;5092802;28;20503;-83
2023/07/20 08:25:46;;;;;;;3.47;2.05;;;36.80;37.70;;;;;;5111295;28;20039;-81
2023/07/20 08:28:14;;;;;;;5.28;2.40;;;36.90;37.30;;;;;;5111056;28;20074;-80
2023/07/20 08:30:49;;;;;;;5.60;2.15;;;37.10;36.20;;;;;;5092778;28;20067;-80
2023/07/20 08:33:18;;;;;;;3.67;2.13;;;37.10;36.30;;;;;;5111254;28;20023;-83
2023/07/20 08:35:43;;;;;;;4.00;1.70;;;36.90;35.60;;;;;;5092764;28;20520;-83
2023/07/20 08:38:09;;;;;;;4.10;1.80;;;37.00;35.70;;;;;;5092886;28;20027;-83
2023/07/20 08:40:41;;;;;;;5.03;2.10;;;37.10;35.50;;;;;;5110930;28;20512;-82
2023/07/20 08:43:07;;;;;;;3.17;2.15;;;37.10;35.60;;;;;;5110956;28;20020;-83
2023/07/20 08:45:34;;;;;;;4.68;1.90;;;37.10;35.20;;;;;;5092787;28;20027;-82
2023/07/20 08:48:02;;;;;;;5.45;2.00;;;37.30;35.30;;;;;;5111264;28;20507;-82
2023/07/20 08:50:30;;;;;;;7.25;1.95;;;37.50;34.90;;;;;;5092544;28;20028;-83
2023/07/20 08:52:57;;;;;;;4.68;1.88;;;37.50;34.50;;;;;;5111158;28;20028;-83
2023/07/20 08:55:25;;;;;;;2.25;1.88;;;37.60;34.80;;;;;;5110805;28;20035;-83
2023/07/20 08:57:54;;;;;;;4.72;2.25;;;37.50;34.40;;;;;;5110979;28;20031;-83
2023/07/20 09:00:21;;;;;;;6.60;1.80;;;37.30;33.60;;;;;;5092742;28;20047;-82
2023/07/20 09:02:52;;;;;;;3.10;1.55;;;37.10;34.60;;;;;;5111241;28;20494;-82
2023/07/20 09:05:19;;;;;;;3.72;1.75;;;37.00;35.00;;;;;;5110793;28;20028;-81
2023/07/20 09:07:45;;;;;;;9.00;1.63;;;37.10;34.80;;;;;;5110953;28;20031;-83
2023/07/20 09:10:11;;;;;;;4.10;1.63;;;37.20;34.60;;;;;;5110747;28;20411;-83
2023/07/20 09:12:38;;;;;;;8.90;2.72;;;37.20;34.20;;;;;;5092370;28;20032;-82
2023/07/20 09:15:05;;;;;;;4.10;1.48;;;37.40;34.30;;;;;;5110616;28;20118;-83
2023/07/20 09:17:31;;;;;;;4.28;1.63;;;37.30;34.10;;;;;;5110594;28;20549;-81
2023/07/20 09:19:57;;;;;;;6.38;1.80;;;37.20;34.50;;;;;;5092246;28;20024;-82
2023/07/20 09:22:29;;;;;;;5.90;1.75;;;37.30;34.30;;;;;;5111428;28;20031;-82
2023/07/20 09:24:55;;;;;;;5.95;1.83;;;37.40;33.90;;;;;;5109247;28;20035;-83
2023/07/20 09:27:21;;;;;;;7.13;1.70;;;37.20;33.00;;;;;;5096003;28;20028;-82
2023/07/20 09:29:51;;;;;;;6.05;1.60;;;37.10;33.30;;;;;;5113971;28;20054;-83
2023/07/20 09:32:21;;;;;;;6.65;1.40;;;37.00;33.50;;;;;;5113997;28;20049;-83
2023/07/20 09:34:49;;;;;;;3.67;1.65;;;37.00;32.90;;;;;;5114174;28;20395;-83
2023/07/20 09:37:23;;;;;;;7.53;1.98;;;36.80;34.00;;;;;;5095795;28;20024;-82
2023/07/20 09:39:51;;;;;;;2.15;1.73;;;36.70;34.40;;;;;;5095848;28;20051;-83
2023/07/20 09:42:18;;;;;;;7.18;1.63;;;36.80;34.30;;;;;;5095723;28;20479;-83
2023/07/20 09:44:44;;;;;;;4.65;1.58;;;36.70;34.80;;;;;;5095850;28;20139;-82
2023/07/20 09:47:10;;;;;;;6.35;1.58;;;36.80;34.80;;;;;;5095802;28;20470;-83
2023/07/20 09:49:40;;;;;;;7.50;1.55;;;36.80;34.40;;;;;;5095636;28;20039;-82
2023/07/20 09:52:11;;;;;;;3.35;1.85;;;36.90;35.50;;;;;;5095817;28;20516;-83
2023/07/20 09:54:40;;;;;;;6.10;1.58;;;37.10;34.80;;;;;;5113774;28;20480;-81
2023/07/20 09:57:11;;;;;;;6.47;1.80;;;37.20;34.30;;;;;;5114064;28;20030;-83
2023/07/20 09:59:37;;;;;;;3.60;1.27;;;37.20;34.00;;;;;;5095492;28;20028;-83
2023/07/20 10:02:12;;;;;;;4.97;1.90;;;36.60;34.20;;;;;;5095107;28;20050;-83
2023/07/20 10:04:39;;;;;;;4.57;1.70;;;35.50;34.90;;;;;;5095192;28;20453;-82
2023/07/20 10:07:13;;;;;;;8.60;2.10;;;34.60;36.40;;;;;;5113738;28;20016;-83
2023/07/20 10:09:41;;;;;;;4.95;2.05;;;34.00;37.80;;;;;;5095306;28;20055;-82
2023/07/20 10:12:08;;;;;;;3.55;1.50;;;33.80;39.00;;;;;;5113560;28;20108;-83
2023/07/20 10:14:38;;;;;;;6.07;1.55;;;34.00;39.10;;;;;;5113473;28;20039;-83
2023/07/20 10:17:07;;;;;;;7.97;1.60;;;34.00;39.20;;;;;;5113431;28;20031;-81
2023/07/20 10:19:49;;;;;;;3.50;1.67;;;33.90;39.60;;;;;;5095138;28;20049;-79
2023/07/20 10:22:19;;;;;;;6.57;1.70;;;33.90;39.60;;;;;;5095372;28;20035;-81
2023/07/20 10:24:47;;;;;;;6.07;1.73;;;33.70;39.30;;;;;;5113703;28;20472;-80
2023/07/20 10:27:14;;;;;;;4.43;1.70;;;33.40;38.60;;;;;;5095219;28;20028;-82
2023/07/20 10:29:40;;;;;;;7.53;1.85;;;33.10;38.60;;;;;;5113131;28;20060;-82
2023/07/20 10:32:09;;;;;;;3.33;1.75;;;32.90;39.90;;;;;;5113255;28;20043;-81
2023/07/20 10:34:34;;;;;;;4.20;2.10;;;32.80;41.80;;;;;;5094065;28;20050;-82
2023/07/20 10:37:00;;;;;;;5.50;1.67;;;32.70;40.40;;;;;;5113161;28;20144;-82
2023/07/20 10:39:27;;;;;;;13.50;2.03;;;32.60;40.40;;;;;;5094574;28;20496;-81
2023/07/20 10:42:09;;;;;;;7.97;2.35;;;32.60;40.60;;;;;;5113093;28;20523;-80
2023/07/20 10:44:42;;;;;;;6.32;1.67;;;32.50;41.10;;;;;;5113116;28;20015;-81
2023/07/20 10:47:12;;;;;;;4.93;1.40;;;32.40;40.80;;;;;;5108272;28;20031;-82
2023/07/20 10:50:00;;;;;;;4.80;1.48;;;32.40;41.60;;;;;;5113036;28;20028;-80
2023/07/20 10:52:26;;;;;;;5.20;1.90;;;32.30;40.00;;;;;;5112909;28;20112;-80
2023/07/20 10:54:52;;;;;;;3.22;1.05;;;32.40;40.30;;;;;;5112562;28;20084;-80
2023/07/20 10:57:29;;;;;;;2.33;1.08;;;32.40;39.80;;;;;;5094292;28;20028;-81
2023/07/20 11:00:13;;;;;;;3.05;1.25;;;32.30;40.80;;;;;;5094681;28;20515;-80
2023/07/20 11:02:47;;;;;;;5.47;1.38;;;32.30;40.70;;;;;;5112530;28;20023;-81
2023/07/20 11:05:38;;;;;;;11.82;1.92;;;32.30;41.80;;;;;;5112293;28;20028;-82
2023/07/20 11:08:06;;;;;;;2.03;1.50;;;32.40;41.10;;;;;;5094463;28;20045;-81
2023/07/20 11:10:32;;;;;;;4.15;1.58;;;32.30;40.80;;;;;;5112182;28;20038;-81
2023/07/20 11:13:19;;;;;;;2.53;1.20;;;32.30;41.00;;;;;;5094113;28;20532;-80
2023/07/20 11:15:57;;;;;;;8.07;1.63;;;32.20;41.00;;;;;;5112199;28;20035;-82
2023/07/20 11:18:26;;;;;;;6.10;2.20;;;32.00;40.80;;;;;;5093863;28;20065;-80
2023/07/20 11:20:53;;;;;;;8.70;1.80;;;31.90;41.40;;;;;;5093925;28;20044;-81
2023/07/20 11:23:22;;;;;;;4.43;1.67;;;31.90;41.30;;;;;;5111855;28;20035;-80
2023/07/20 11:25:48;;;;;;;5.18;1.15;;;31.90;41.20;;;;;;5112140;28;20046;-80
2023/07/20 11:28:13;;;;;;;3.58;1.58;;;31.80;40.70;;;;;;5112275;28;20484;-81
2023/07/20 11:30:39;;;;;;;8.45;1.70;;;31.50;40.60;;;;;;5093593;28;20047;-81
2023/07/20 11:33:07;;;;;;;4.20;1.85;;;31.20;40.90;;;;;;5093926;28;20043;-81
2023/07/20 11:35:48;;;;;;;12.60;1.90;;;31.10;41.40;;;;;;5112216;28;20039;-81
2023/07/20 11:38:14;;;;;;;8.15;1.42;;;30.90;41.60;;;;;;5093923;28;20480;-82
2023/07/20 11:40:44;;;;;;;4.88;1.40;;;30.80;42.10;;;;;;5111910;28;20034;-82
2023/07/20 11:43:11;;;;;;;2.30;1.55;;;30.80;42.10;;;;;;5111439;28;20023;-81
2023/07/20 11:45:38;;;;;;;3.35;1.75;;;30.90;41.80;;;;;;5093056;28;20034;-82
2023/07/20 11:48:04;;;;;;;2.75;1.30;;;31.00;41.20;;;;;;5112073;28;20506;-81
2023/07/20 11:50:29;;;;;;;3.47;1.40;;;31.00;41.90;;;;;;5093597;28;20028;-82
2023/07/20 11:52:56;;;;;;;6.40;1.98;;;30.90;42.20;;;;;;5112017;28;20047;-82
2023/07/20 11:55:22;;;;;;;2.15;1.23;;;30.90;43.20;;;;;;5111815;28;20046;-81
2023/07/20 11:58:07;;;;;;;2.20;1.20;;;31.10;42.10;;;;;;5093255;28;20023;-82
2023/07/20 12:00:34;;;;;;;9.13;2.88;;;31.20;41.40;;;;;;5093762;28;20039;-82
2023/07/20 12:03:00;;;;;;;5.60;1.35;;;31.30;41.60;;;;;;5111396;28;20035;-80
2023/07/20 12:05:26;;;;;;;4.13;1.00;;;31.30;40.30;;;;;;5093936;28;20027;-79
2023/07/20 12:07:54;;;;;;;6.13;1.40;;;31.30;40.40;;;;;;5093130;28;20476;-81
2023/07/20 12:10:28;;;;;;;6.28;1.58;;;31.30;41.10;;;;;;5111004;28;20436;-81
2023/07/20 12:12:54;;;;;;;7.80;1.67;;;31.30;40.60;;;;;;5111932;28;20027;-80
2023/07/20 12:15:31;;;;;;;4.63;1.08;;;31.40;40.70;;;;;;5111190;28;20036;-82
2023/07/20 12:18:00;;;;;;;3.78;1.33;;;31.40;41.20;;;;;;5093688;28;20026;-83
2023/07/20 12:20:36;;;;;;;3.85;1.30;;;31.50;41.50;;;;;;5093154;28;20034;-80
2023/07/20 12:23:09;;;;;;;4.72;1.30;;;31.50;40.10;;;;;;5093018;28;20115;-81
2023/07/20 12:25:45;;;;;;;3.22;1.20;;;31.50;39.50;;;;;;5093407;28;20031;-81
2023/07/20 12:28:19;;;;;;;2.15;1.10;;;31.50;40.10;;;;;;5111636;28;20081;-82
2023/07/20 12:30:46;;;;;;;5.85;1.65;;;31.40;39.60;;;;;;5089917;28;20056;-82
2023/07/20 12:33:15;;;;;;;3.72;1.65;;;31.50;40.10;;;;;;5091109;28;20020;-81
2023/07/20 12:35:43;;;;;;;3.58;1.40;;;31.50;40.00;;;;;;5089756;28;20074;-82
2023/07/20 12:38:08;;;;;;;7.53;2.15;;;31.60;39.20;;;;;;5091134;28;20104;-82
2023/07/20 12:40:36;;;;;;;3.58;1.45;;;31.50;39.20;;;;;;5091092;28;20111;-82
2023/07/20 12:43:01;;;;;;;9.45;1.48;;;31.50;38.30;;;;;;5090909;28;20059;-82
2023/07/20 12:45:27;;;;;;;4.90;1.60;;;31.50;38.10;;;;;;5090758;28;20068;-80
2023/07/20 12:47:53;;;;;;;4.82;0.90;;;31.50;37.90;;;;;;5089599;28;20119;-82